sensor_id;sensor_type;location;lat;lon;timestamp;temperature;humidity
18392;DHT22;9322;50.932;5.318;2023-04-07T00:00:29;9.40;1.40
18392;DHT22;9322;50.932;5.318;2023-04-07T00:02:54;9.40;1.40
18392;DHT22;9322;50.932;5.318;2023-04-07T00:05:21;9.40;1.40
18392;DHT22;9322;50.932;5.318;2023-04-07T00:07:47;9.30;1.40
18392;DHT22;9322;50.932;5.318;2023-04-07T00:10:13;9.30;1.40
18392;DHT22;9322;50.932;5.318;2023-04-07T00:12:39;9.30;1.40
18392;DHT22;9322;50.932;5.318;2023-04-07T00:15:05;9.30;1.40
18392;DHT22;9322;50.932;5.318;2023-04-07T00:17:31;9.40;1.40
18392;DHT22;9322;50.932;5.318;2023-04-07T00:19:56;9.30;1.40
18392;DHT22;9322;50.932;5.318;2023-04-07T00:22:22;9.40;1.40
18392;DHT22;9322;50.932;5.318;2023-04-07T00:24:48;9.40;1.40
18392;DHT22;9322;50.932;5.318;2023-04-07T00:27:14;9.40;1.40
18392;DHT22;9322;50.932;5.318;2023-04-07T00:29:40;9.40;1.40
18392;DHT22;9322;50.932;5.318;2023-04-07T00:32:08;9.40;1.40
18392;DHT22;9322;50.932;5.318;2023-04-07T00:34:33;9.40;1.40
18392;DHT22;9322;50.932;5.318;2023-04-07T00:36:59;9.60;1.40
18392;DHT22;9322;50.932;5.318;2023-04-07T00:39:24;9.50;1.40
18392;DHT22;9322;50.932;5.318;2023-04-07T00:41:51;9.40;1.40
18392;DHT22;9322;50.932;5.318;2023-04-07T00:44:17;9.30;1.40
18392;DHT22;9322;50.932;5.318;2023-04-07T00:46:43;9.30;1.40
18392;DHT22;9322;50.932;5.318;2023-04-07T00:49:09;9.30;1.40
18392;DHT22;9322;50.932;5.318;2023-04-07T00:51:35;9.20;1.40
18392;DHT22;9322;50.932;5.318;2023-04-07T00:54:01;9.20;1.40
18392;DHT22;9322;50.932;5.318;2023-04-07T00:56:27;9.20;1.40
18392;DHT22;9322;50.932;5.318;2023-04-07T00:58:53;9.30;1.40
18392;DHT22;9322;50.932;5.318;2023-04-07T01:01:22;9.40;1.40
18392;DHT22;9322;50.932;5.318;2023-04-07T01:03:55;9.40;1.40
18392;DHT22;9322;50.932;5.318;2023-04-07T01:06:25;9.40;1.40
18392;DHT22;9322;50.932;5.318;2023-04-07T01:09:18;9.40;1.40
18392;DHT22;9322;50.932;5.318;2023-04-07T01:14:22;9.50;1.40
18392;DHT22;9322;50.932;5.318;2023-04-07T01:16:50;9.40;1.40
18392;DHT22;9322;50.932;5.318;2023-04-07T01:22:11;9.30;1.40
18392;DHT22;9322;50.932;5.318;2023-04-07T01:30:33;9.50;1.40
18392;DHT22;9322;50.932;5.318;2023-04-07T01:33:00;9.40;1.40
18392;DHT22;9322;50.932;5.318;2023-04-07T01:35:32;9.40;1.40
18392;DHT22;9322;50.932;5.318;2023-04-07T01:37:59;9.40;1.40
18392;DHT22;9322;50.932;5.318;2023-04-07T01:40:26;9.40;1.40
18392;DHT22;9322;50.932;5.318;2023-04-07T01:42:53;9.30;1.40
18392;DHT22;9322;50.932;5.318;2023-04-07T01:45:21;9.30;1.40
18392;DHT22;9322;50.932;5.318;2023-04-07T01:47:48;9.30;1.40
18392;DHT22;9322;50.932;5.318;2023-04-07T01:50:15;9.40;1.40
18392;DHT22;9322;50.932;5.318;2023-04-07T01:52:41;9.40;1.40
18392;DHT22;9322;50.932;5.318;2023-04-07T01:55:08;9.40;1.40
18392;DHT22;9322;50.932;5.318;2023-04-07T01:57:34;9.20;1.40
18392;DHT22;9322;50.932;5.318;2023-04-07T02:00:00;9.10;1.40
18392;DHT22;9322;50.932;5.318;2023-04-07T02:02:27;8.90;1.40
18392;DHT22;9322;50.932;5.318;2023-04-07T02:04:55;8.80;1.40
18392;DHT22;9322;50.932;5.318;2023-04-07T02:07:31;8.70;1.40
18392;DHT22;9322;50.932;5.318;2023-04-07T02:10:02;8.60;1.40
18392;DHT22;9322;50.932;5.318;2023-04-07T02:12:30;8.50;1.40
18392;DHT22;9322;50.932;5.318;2023-04-07T02:14:57;8.50;1.40
18392;DHT22;9322;50.932;5.318;2023-04-07T02:17:26;8.40;1.40
18392;DHT22;9322;50.932;5.318;2023-04-07T02:19:53;8.50;1.40
18392;DHT22;9322;50.932;5.318;2023-04-07T02:22:20;8.50;1.40
18392;DHT22;9322;50.932;5.318;2023-04-07T02:24:46;8.50;1.40
18392;DHT22;9322;50.932;5.318;2023-04-07T02:27:11;8.50;1.40
18392;DHT22;9322;50.932;5.318;2023-04-07T02:29:37;8.70;1.40
18392;DHT22;9322;50.932;5.318;2023-04-07T02:32:04;8.70;1.40
18392;DHT22;9322;50.932;5.318;2023-04-07T02:34:30;8.60;1.40
18392;DHT22;9322;50.932;5.318;2023-04-07T02:36:55;8.80;1.40
18392;DHT22;9322;50.932;5.318;2023-04-07T02:39:21;8.70;1.40
18392;DHT22;9322;50.932;5.318;2023-04-07T02:41:47;8.70;1.40
18392;DHT22;9322;50.932;5.318;2023-04-07T02:44:12;8.60;1.40
18392;DHT22;9322;50.932;5.318;2023-04-07T02:46:38;8.80;1.40
18392;DHT22;9322;50.932;5.318;2023-04-07T02:49:04;8.60;1.40
18392;DHT22;9322;50.932;5.318;2023-04-07T02:51:29;8.90;1.40
18392;DHT22;9322;50.932;5.318;2023-04-07T02:53:55;8.70;1.40
18392;DHT22;9322;50.932;5.318;2023-04-07T02:56:21;8.70;1.40
18392;DHT22;9322;50.932;5.318;2023-04-07T02:58:47;8.70;1.40
18392;DHT22;9322;50.932;5.318;2023-04-07T03:01:12;8.70;1.40
18392;DHT22;9322;50.932;5.318;2023-04-07T03:03:38;8.70;1.40
18392;DHT22;9322;50.932;5.318;2023-04-07T03:06:04;8.70;1.40
18392;DHT22;9322;50.932;5.318;2023-04-07T03:08:30;8.60;1.40
18392;DHT22;9322;50.932;5.318;2023-04-07T03:10:56;8.70;1.40
18392;DHT22;9322;50.932;5.318;2023-04-07T03:13:21;8.70;1.40
18392;DHT22;9322;50.932;5.318;2023-04-07T03:15:47;8.80;1.40
18392;DHT22;9322;50.932;5.318;2023-04-07T03:18:13;8.80;1.40
18392;DHT22;9322;50.932;5.318;2023-04-07T03:20:38;8.80;1.40
18392;DHT22;9322;50.932;5.318;2023-04-07T03:23:07;8.80;1.40
18392;DHT22;9322;50.932;5.318;2023-04-07T03:25:32;8.80;1.40
18392;DHT22;9322;50.932;5.318;2023-04-07T03:27:58;8.80;1.40
18392;DHT22;9322;50.932;5.318;2023-04-07T03:30:24;8.90;1.40
18392;DHT22;9322;50.932;5.318;2023-04-07T03:32:50;8.80;1.40
18392;DHT22;9322;50.932;5.318;2023-04-07T03:35:15;8.90;1.40
18392;DHT22;9322;50.932;5.318;2023-04-07T03:37:41;8.80;1.40
18392;DHT22;9322;50.932;5.318;2023-04-07T03:40:07;8.90;1.40
18392;DHT22;9322;50.932;5.318;2023-04-07T03:42:33;8.80;1.40
18392;DHT22;9322;50.932;5.318;2023-04-07T03:44:59;9.10;1.40
18392;DHT22;9322;50.932;5.318;2023-04-07T03:47:24;8.80;1.40
18392;DHT22;9322;50.932;5.318;2023-04-07T03:49:50;8.90;1.40
18392;DHT22;9322;50.932;5.318;2023-04-07T03:52:16;8.80;1.40
18392;DHT22;9322;50.932;5.318;2023-04-07T03:54:42;8.70;1.40
18392;DHT22;9322;50.932;5.318;2023-04-07T03:57:08;8.60;1.40
18392;DHT22;9322;50.932;5.318;2023-04-07T03:59:34;8.50;1.40
18392;DHT22;9322;50.932;5.318;2023-04-07T04:01:59;8.50;1.40
18392;DHT22;9322;50.932;5.318;2023-04-07T04:04:25;8.50;1.40
18392;DHT22;9322;50.932;5.318;2023-04-07T04:06:51;8.50;1.40
18392;DHT22;9322;50.932;5.318;2023-04-07T04:09:17;8.60;1.40
18392;DHT22;9322;50.932;5.318;2023-04-07T04:11:42;8.50;1.40
18392;DHT22;9322;50.932;5.318;2023-04-07T04:14:08;8.40;1.40
18392;DHT22;9322;50.932;5.318;2023-04-07T04:16:34;8.50;1.40
18392;DHT22;9322;50.932;5.318;2023-04-07T04:19:02;8.60;1.40
18392;DHT22;9322;50.932;5.318;2023-04-07T04:21:28;8.50;1.40
18392;DHT22;9322;50.932;5.318;2023-04-07T04:23:53;8.60;1.40
18392;DHT22;9322;50.932;5.318;2023-04-07T04:26:19;8.40;1.40
18392;DHT22;9322;50.932;5.318;2023-04-07T04:28:45;8.40;1.40
18392;DHT22;9322;50.932;5.318;2023-04-07T04:31:11;8.30;1.40
18392;DHT22;9322;50.932;5.318;2023-04-07T04:33:37;8.30;1.40
18392;DHT22;9322;50.932;5.318;2023-04-07T04:36:03;8.10;1.40
18392;DHT22;9322;50.932;5.318;2023-04-07T04:38:29;8.10;1.40
18392;DHT22;9322;50.932;5.318;2023-04-07T04:40:55;8.10;1.40
18392;DHT22;9322;50.932;5.318;2023-04-07T04:43:20;8.10;1.40
18392;DHT22;9322;50.932;5.318;2023-04-07T04:45:46;8.10;1.40
18392;DHT22;9322;50.932;5.318;2023-04-07T04:48:12;8.20;1.40
18392;DHT22;9322;50.932;5.318;2023-04-07T04:50:37;8.10;1.40
18392;DHT22;9322;50.932;5.318;2023-04-07T04:53:03;8.10;1.40
18392;DHT22;9322;50.932;5.318;2023-04-07T04:55:29;8.10;1.40
18392;DHT22;9322;50.932;5.318;2023-04-07T04:57:54;7.90;1.40
18392;DHT22;9322;50.932;5.318;2023-04-07T05:00:20;8.00;1.40
18392;DHT22;9322;50.932;5.318;2023-04-07T05:02:46;7.90;1.40
18392;DHT22;9322;50.932;5.318;2023-04-07T05:05:12;7.80;1.40
18392;DHT22;9322;50.932;5.318;2023-04-07T05:07:38;7.70;1.40
18392;DHT22;9322;50.932;5.318;2023-04-07T05:10:06;7.70;1.40
18392;DHT22;9322;50.932;5.318;2023-04-07T05:12:32;7.70;1.40
18392;DHT22;9322;50.932;5.318;2023-04-07T05:14:58;7.80;1.40
18392;DHT22;9322;50.932;5.318;2023-04-07T05:17:23;7.70;1.40
18392;DHT22;9322;50.932;5.318;2023-04-07T05:19:49;7.60;1.40
18392;DHT22;9322;50.932;5.318;2023-04-07T05:22:15;7.70;1.40
18392;DHT22;9322;50.932;5.318;2023-04-07T05:24:41;7.50;1.40
18392;DHT22;9322;50.932;5.318;2023-04-07T05:27:06;7.40;1.40
18392;DHT22;9322;50.932;5.318;2023-04-07T05:29:32;7.40;1.40
18392;DHT22;9322;50.932;5.318;2023-04-07T05:31:58;7.30;1.40
18392;DHT22;9322;50.932;5.318;2023-04-07T05:34:26;7.40;1.40
18392;DHT22;9322;50.932;5.318;2023-04-07T05:36:52;7.30;1.40
18392;DHT22;9322;50.932;5.318;2023-04-07T05:39:18;7.30;1.40
18392;DHT22;9322;50.932;5.318;2023-04-07T05:41:44;7.40;1.40
18392;DHT22;9322;50.932;5.318;2023-04-07T05:44:09;7.40;1.40
18392;DHT22;9322;50.932;5.318;2023-04-07T05:46:35;7.40;1.40
18392;DHT22;9322;50.932;5.318;2023-04-07T05:49:01;7.50;1.40
18392;DHT22;9322;50.932;5.318;2023-04-07T05:51:26;7.50;1.40
18392;DHT22;9322;50.932;5.318;2023-04-07T05:53:52;7.60;1.40
18392;DHT22;9322;50.932;5.318;2023-04-07T05:56:18;7.70;1.40
18392;DHT22;9322;50.932;5.318;2023-04-07T05:58:43;7.80;1.40
18392;DHT22;9322;50.932;5.318;2023-04-07T06:01:09;7.80;1.40
18392;DHT22;9322;50.932;5.318;2023-04-07T06:03:35;8.00;1.40
18392;DHT22;9322;50.932;5.318;2023-04-07T06:06:00;8.00;1.40
18392;DHT22;9322;50.932;5.318;2023-04-07T06:08:26;8.00;1.40
18392;DHT22;9322;50.932;5.318;2023-04-07T06:10:52;8.00;1.40
18392;DHT22;9322;50.932;5.318;2023-04-07T06:13:17;8.10;1.40
18392;DHT22;9322;50.932;5.318;2023-04-07T06:15:43;8.10;1.40
18392;DHT22;9322;50.932;5.318;2023-04-07T06:18:09;8.20;1.40
18392;DHT22;9322;50.932;5.318;2023-04-07T06:20:35;8.30;1.40
18392;DHT22;9322;50.932;5.318;2023-04-07T06:23:00;8.40;1.40
18392;DHT22;9322;50.932;5.318;2023-04-07T06:25:26;8.50;1.40
18392;DHT22;9322;50.932;5.318;2023-04-07T06:27:53;8.60;1.40
18392;DHT22;9322;50.932;5.318;2023-04-07T06:30:19;8.50;1.40
18392;DHT22;9322;50.932;5.318;2023-04-07T06:32:44;8.50;1.40
18392;DHT22;9322;50.932;5.318;2023-04-07T06:35:11;8.50;1.40
18392;DHT22;9322;50.932;5.318;2023-04-07T06:37:36;8.60;1.40
18392;DHT22;9322;50.932;5.318;2023-04-07T06:40:05;8.70;1.40
18392;DHT22;9322;50.932;5.318;2023-04-07T06:42:31;8.90;1.40
18392;DHT22;9322;50.932;5.318;2023-04-07T06:44:56;8.90;1.40
18392;DHT22;9322;50.932;5.318;2023-04-07T06:47:22;9.00;1.40
18392;DHT22;9322;50.932;5.318;2023-04-07T06:49:48;9.00;1.40
18392;DHT22;9322;50.932;5.318;2023-04-07T06:52:14;9.00;1.40
18392;DHT22;9322;50.932;5.318;2023-04-07T06:54:40;9.10;1.40
18392;DHT22;9322;50.932;5.318;2023-04-07T06:57:06;9.00;1.40
18392;DHT22;9322;50.932;5.318;2023-04-07T06:59:37;9.00;1.40
18392;DHT22;9322;50.932;5.318;2023-04-07T07:02:03;9.10;1.40
18392;DHT22;9322;50.932;5.318;2023-04-07T07:04:28;9.20;1.40
18392;DHT22;9322;50.932;5.318;2023-04-07T07:06:54;9.20;1.40
18392;DHT22;9322;50.932;5.318;2023-04-07T07:09:21;9.20;1.40
18392;DHT22;9322;50.932;5.318;2023-04-07T07:11:46;9.20;1.40
18392;DHT22;9322;50.932;5.318;2023-04-07T07:14:12;9.10;1.40
18392;DHT22;9322;50.932;5.318;2023-04-07T07:16:38;9.10;1.40
18392;DHT22;9322;50.932;5.318;2023-04-07T07:19:03;9.20;1.40
18392;DHT22;9322;50.932;5.318;2023-04-07T07:21:29;9.40;1.40
18392;DHT22;9322;50.932;5.318;2023-04-07T07:23:56;9.30;1.40
18392;DHT22;9322;50.932;5.318;2023-04-07T07:26:22;9.30;1.40
18392;DHT22;9322;50.932;5.318;2023-04-07T07:28:47;9.70;1.40
18392;DHT22;9322;50.932;5.318;2023-04-07T07:31:13;10.00;1.40
18392;DHT22;9322;50.932;5.318;2023-04-07T07:33:40;10.30;1.40
18392;DHT22;9322;50.932;5.318;2023-04-07T07:36:09;10.70;1.40
18392;DHT22;9322;50.932;5.318;2023-04-07T07:38:34;11.30;1.40
18392;DHT22;9322;50.932;5.318;2023-04-07T07:41:01;11.40;1.40
18392;DHT22;9322;50.932;5.318;2023-04-07T07:43:27;11.60;1.40
18392;DHT22;9322;50.932;5.318;2023-04-07T07:45:52;11.80;1.40
18392;DHT22;9322;50.932;5.318;2023-04-07T07:48:18;12.00;1.40
18392;DHT22;9322;50.932;5.318;2023-04-07T07:50:44;12.30;1.40
18392;DHT22;9322;50.932;5.318;2023-04-07T07:53:10;12.40;1.40
18392;DHT22;9322;50.932;5.318;2023-04-07T07:55:35;12.70;1.40
18392;DHT22;9322;50.932;5.318;2023-04-07T07:58:01;12.70;1.40
18392;DHT22;9322;50.932;5.318;2023-04-07T08:00:27;12.70;1.40
18392;DHT22;9322;50.932;5.318;2023-04-07T08:02:53;12.50;1.40
18392;DHT22;9322;50.932;5.318;2023-04-07T08:05:19;12.10;1.40
18392;DHT22;9322;50.932;5.318;2023-04-07T08:07:45;12.20;1.40
18392;DHT22;9322;50.932;5.318;2023-04-07T08:10:11;12.30;1.40
18392;DHT22;9322;50.932;5.318;2023-04-07T08:12:37;12.40;1.40
18392;DHT22;9322;50.932;5.318;2023-04-07T08:15:04;12.20;1.40
18392;DHT22;9322;50.932;5.318;2023-04-07T08:17:30;12.10;1.40
18392;DHT22;9322;50.932;5.318;2023-04-07T08:19:56;12.00;1.40
18392;DHT22;9322;50.932;5.318;2023-04-07T08:22:22;11.80;1.40
18392;DHT22;9322;50.932;5.318;2023-04-07T08:24:47;12.00;1.40
18392;DHT22;9322;50.932;5.318;2023-04-07T08:27:13;11.90;1.40
18392;DHT22;9322;50.932;5.318;2023-04-07T08:29:39;11.90;1.40
18392;DHT22;9322;50.932;5.318;2023-04-07T08:32:04;11.50;1.40
18392;DHT22;9322;50.932;5.318;2023-04-07T08:34:30;11.50;1.40
18392;DHT22;9322;50.932;5.318;2023-04-07T08:36:56;11.50;1.40
18392;DHT22;9322;50.932;5.318;2023-04-07T08:39:21;11.50;1.40
18392;DHT22;9322;50.932;5.318;2023-04-07T08:41:50;11.70;1.40
18392;DHT22;9322;50.932;5.318;2023-04-07T08:44:16;12.20;1.40
18392;DHT22;9322;50.932;5.318;2023-04-07T08:46:42;12.50;1.40
18392;DHT22;9322;50.932;5.318;2023-04-07T08:49:10;13.40;1.40
18392;DHT22;9322;50.932;5.318;2023-04-07T08:51:44;14.50;1.40
18392;DHT22;9322;50.932;5.318;2023-04-07T08:54:14;15.40;1.40
18392;DHT22;9322;50.932;5.318;2023-04-07T08:56:41;16.30;1.40
18392;DHT22;9322;50.932;5.318;2023-04-07T08:59:09;17.30;1.40
18392;DHT22;9322;50.932;5.318;2023-04-07T09:01:35;17.10;1.40
18392;DHT22;9322;50.932;5.318;2023-04-07T09:04:03;16.50;1.40
18392;DHT22;9322;50.932;5.318;2023-04-07T09:06:32;16.10;1.40
18392;DHT22;9322;50.932;5.318;2023-04-07T09:08:59;15.50;1.40
18392;DHT22;9322;50.932;5.318;2023-04-07T09:11:28;15.60;1.40
18392;DHT22;9322;50.932;5.318;2023-04-07T09:13:55;15.40;1.40
18392;DHT22;9322;50.932;5.318;2023-04-07T09:16:21;15.20;1.40
18392;DHT22;9322;50.932;5.318;2023-04-07T09:18:48;15.50;1.40
18392;DHT22;9322;50.932;5.318;2023-04-07T09:21:14;15.00;1.40
18392;DHT22;9322;50.932;5.318;2023-04-07T09:23:41;14.60;1.40
18392;DHT22;9322;50.932;5.318;2023-04-07T09:26:26;14.50;1.40
18392;DHT22;9322;50.932;5.318;2023-04-07T09:29:00;14.00;1.40
18392;DHT22;9322;50.932;5.318;2023-04-07T09:31:44;13.50;1.40
18392;DHT22;9322;50.932;5.318;2023-04-07T09:34:27;13.00;1.40
18392;DHT22;9322;50.932;5.318;2023-04-07T09:36:53;13.10;1.40
18392;DHT22;9322;50.932;5.318;2023-04-07T09:39:19;12.90;1.40
18392;DHT22;9322;50.932;5.318;2023-04-07T09:41:45;12.60;1.40
18392;DHT22;9322;50.932;5.318;2023-04-07T09:44:11;12.40;1.40
18392;DHT22;9322;50.932;5.318;2023-04-07T09:46:48;12.20;1.40
18392;DHT22;9322;50.932;5.318;2023-04-07T09:49:14;12.30;1.40
18392;DHT22;9322;50.932;5.318;2023-04-07T09:51:58;12.20;1.40
18392;DHT22;9322;50.932;5.318;2023-04-07T09:54:38;12.10;1.40
18392;DHT22;9322;50.932;5.318;2023-04-07T09:57:05;12.20;1.40
18392;DHT22;9322;50.932;5.318;2023-04-07T09:59:33;12.00;1.40
18392;DHT22;9322;50.932;5.318;2023-04-07T10:01:59;12.40;1.40
18392;DHT22;9322;50.932;5.318;2023-04-07T10:04:25;12.90;1.40
18392;DHT22;9322;50.932;5.318;2023-04-07T10:06:52;13.50;1.40
18392;DHT22;9322;50.932;5.318;2023-04-07T10:09:22;14.30;1.40
18392;DHT22;9322;50.932;5.318;2023-04-07T10:11:52;13.80;1.40
18392;DHT22;9322;50.932;5.318;2023-04-07T10:14:20;13.80;1.40
18392;DHT22;9322;50.932;5.318;2023-04-07T10:16:48;13.40;1.40
18392;DHT22;9322;50.932;5.318;2023-04-07T10:19:18;13.30;1.40
18392;DHT22;9322;50.932;5.318;2023-04-07T10:21:44;13.40;1.40
18392;DHT22;9322;50.932;5.318;2023-04-07T10:26:55;13.50;1.40
18392;DHT22;9322;50.932;5.318;2023-04-07T10:29:23;13.40;1.40
18392;DHT22;9322;50.932;5.318;2023-04-07T10:31:50;13.30;1.40
18392;DHT22;9322;50.932;5.318;2023-04-07T10:34:17;13.20;1.40
18392;DHT22;9322;50.932;5.318;2023-04-07T10:37:11;13.20;1.40
18392;DHT22;9322;50.932;5.318;2023-04-07T10:39:42;13.00;1.40
18392;DHT22;9322;50.932;5.318;2023-04-07T10:45:02;13.00;1.40
18392;DHT22;9322;50.932;5.318;2023-04-07T10:47:29;13.10;1.40
18392;DHT22;9322;50.932;5.318;2023-04-07T10:50:18;13.20;1.40
18392;DHT22;9322;50.932;5.318;2023-04-07T10:52:48;13.80;1.40
18392;DHT22;9322;50.932;5.318;2023-04-07T11:00:42;14.10;1.40
18392;DHT22;9322;50.932;5.318;2023-04-07T11:03:29;14.20;1.40
18392;DHT22;9322;50.932;5.318;2023-04-07T11:06:11;14.10;1.40
18392;DHT22;9322;50.932;5.318;2023-04-07T11:11:08;13.80;1.40
18392;DHT22;9322;50.932;5.318;2023-04-07T11:13:47;14.50;1.40
18392;DHT22;9322;50.932;5.318;2023-04-07T11:16:14;15.60;1.40
18392;DHT22;9322;50.932;5.318;2023-04-07T11:18:41;17.50;1.40
18392;DHT22;9322;50.932;5.318;2023-04-07T11:21:07;18.60;1.40
18392;DHT22;9322;50.932;5.318;2023-04-07T11:23:43;19.70;1.40
18392;DHT22;9322;50.932;5.318;2023-04-07T11:26:12;20.50;1.40
18392;DHT22;9322;50.932;5.318;2023-04-07T11:28:49;19.80;1.40
18392;DHT22;9322;50.932;5.318;2023-04-07T11:31:24;18.70;1.40
18392;DHT22;9322;50.932;5.318;2023-04-07T11:34:01;18.20;1.40
18392;DHT22;9322;50.932;5.318;2023-04-07T11:36:33;17.90;1.40
18392;DHT22;9322;50.932;5.318;2023-04-07T11:39:00;17.30;1.40
18392;DHT22;9322;50.932;5.318;2023-04-07T11:41:28;16.30;1.40
18392;DHT22;9322;50.932;5.318;2023-04-07T11:44:08;15.30;1.40
18392;DHT22;9322;50.932;5.318;2023-04-07T11:46:35;15.10;1.40
18392;DHT22;9322;50.932;5.318;2023-04-07T11:49:12;15.10;1.40
18392;DHT22;9322;50.932;5.318;2023-04-07T11:51:38;15.60;1.40
18392;DHT22;9322;50.932;5.318;2023-04-07T11:54:04;15.90;1.40
18392;DHT22;9322;50.932;5.318;2023-04-07T11:56:46;16.60;1.40
18392;DHT22;9322;50.932;5.318;2023-04-07T11:59:23;17.00;1.40
18392;DHT22;9322;50.932;5.318;2023-04-07T12:01:50;17.30;1.40
18392;DHT22;9322;50.932;5.318;2023-04-07T12:04:17;16.90;1.40
18392;DHT22;9322;50.932;5.318;2023-04-07T12:06:44;16.20;1.40
18392;DHT22;9322;50.932;5.318;2023-04-07T12:09:27;15.40;1.40
18392;DHT22;9322;50.932;5.318;2023-04-07T12:11:53;15.20;1.40
18392;DHT22;9322;50.932;5.318;2023-04-07T12:14:19;14.80;1.40
18392;DHT22;9322;50.932;5.318;2023-04-07T12:16:45;14.30;1.40
18392;DHT22;9322;50.932;5.318;2023-04-07T12:19:11;14.10;1.40
18392;DHT22;9322;50.932;5.318;2023-04-07T12:21:37;13.70;1.40
18392;DHT22;9322;50.932;5.318;2023-04-07T12:24:03;13.60;1.40
18392;DHT22;9322;50.932;5.318;2023-04-07T12:26:28;13.30;1.40
18392;DHT22;9322;50.932;5.318;2023-04-07T12:28:54;13.00;1.40
18392;DHT22;9322;50.932;5.318;2023-04-07T12:31:20;12.70;1.40
18392;DHT22;9322;50.932;5.318;2023-04-07T12:33:46;12.80;1.40
18392;DHT22;9322;50.932;5.318;2023-04-07T12:36:12;12.50;1.40
18392;DHT22;9322;50.932;5.318;2023-04-07T12:38:38;12.40;1.40
18392;DHT22;9322;50.932;5.318;2023-04-07T12:41:03;12.30;1.40
18392;DHT22;9322;50.932;5.318;2023-04-07T12:43:30;12.40;1.40
18392;DHT22;9322;50.932;5.318;2023-04-07T12:45:55;12.20;1.40
18392;DHT22;9322;50.932;5.318;2023-04-07T12:48:21;12.40;1.40
18392;DHT22;9322;50.932;5.318;2023-04-07T12:50:48;12.50;1.40
18392;DHT22;9322;50.932;5.318;2023-04-07T12:53:14;12.30;1.40
18392;DHT22;9322;50.932;5.318;2023-04-07T12:55:40;12.30;1.40
18392;DHT22;9322;50.932;5.318;2023-04-07T12:58:06;12.10;1.40
18392;DHT22;9322;50.932;5.318;2023-04-07T13:00:33;12.00;1.40
18392;DHT22;9322;50.932;5.318;2023-04-07T13:03:00;12.10;1.40
18392;DHT22;9322;50.932;5.318;2023-04-07T13:05:27;12.20;1.40
18392;DHT22;9322;50.932;5.318;2023-04-07T13:07:53;12.20;1.40
18392;DHT22;9322;50.932;5.318;2023-04-07T13:10:19;12.20;1.40
18392;DHT22;9322;50.932;5.318;2023-04-07T13:12:45;12.40;1.40
18392;DHT22;9322;50.932;5.318;2023-04-07T13:15:11;12.70;1.40
18392;DHT22;9322;50.932;5.318;2023-04-07T13:17:37;12.90;1.40
18392;DHT22;9322;50.932;5.318;2023-04-07T13:20:04;12.70;1.40
18392;DHT22;9322;50.932;5.318;2023-04-07T13:22:30;12.60;1.40
18392;DHT22;9322;50.932;5.318;2023-04-07T13:24:56;12.80;1.40
18392;DHT22;9322;50.932;5.318;2023-04-07T13:27:22;13.00;1.40
18392;DHT22;9322;50.932;5.318;2023-04-07T13:29:47;13.10;1.40
18392;DHT22;9322;50.932;5.318;2023-04-07T13:32:13;13.30;1.40
18392;DHT22;9322;50.932;5.318;2023-04-07T13:34:40;13.40;1.40
18392;DHT22;9322;50.932;5.318;2023-04-07T13:37:06;13.40;1.40
18392;DHT22;9322;50.932;5.318;2023-04-07T13:39:32;13.80;1.40
18392;DHT22;9322;50.932;5.318;2023-04-07T13:41:58;14.00;1.40
18392;DHT22;9322;50.932;5.318;2023-04-07T13:44:25;14.20;1.40
18392;DHT22;9322;50.932;5.318;2023-04-07T13:46:52;14.20;1.40
18392;DHT22;9322;50.932;5.318;2023-04-07T13:49:18;14.20;1.40
18392;DHT22;9322;50.932;5.318;2023-04-07T13:51:44;14.00;1.40
18392;DHT22;9322;50.932;5.318;2023-04-07T13:54:10;14.10;1.40
18392;DHT22;9322;50.932;5.318;2023-04-07T13:56:35;14.10;1.40
18392;DHT22;9322;50.932;5.318;2023-04-07T13:59:06;13.80;1.40
18392;DHT22;9322;50.932;5.318;2023-04-07T14:01:35;13.50;1.40
18392;DHT22;9322;50.932;5.318;2023-04-07T14:04:03;13.50;1.40
18392;DHT22;9322;50.932;5.318;2023-04-07T14:06:29;13.30;1.40
18392;DHT22;9322;50.932;5.318;2023-04-07T14:08:56;13.50;1.40
18392;DHT22;9322;50.932;5.318;2023-04-07T14:11:22;13.80;1.40
18392;DHT22;9322;50.932;5.318;2023-04-07T14:13:49;13.90;1.40
18392;DHT22;9322;50.932;5.318;2023-04-07T14:16:15;13.80;1.40
18392;DHT22;9322;50.932;5.318;2023-04-07T14:18:41;13.60;1.40
18392;DHT22;9322;50.932;5.318;2023-04-07T14:21:06;13.70;1.40
18392;DHT22;9322;50.932;5.318;2023-04-07T14:23:33;13.30;1.40
18392;DHT22;9322;50.932;5.318;2023-04-07T14:25:59;13.40;1.40
18392;DHT22;9322;50.932;5.318;2023-04-07T14:28:26;13.20;1.40
18392;DHT22;9322;50.932;5.318;2023-04-07T14:30:52;13.30;1.40
18392;DHT22;9322;50.932;5.318;2023-04-07T14:33:19;13.40;1.40
18392;DHT22;9322;50.932;5.318;2023-04-07T14:35:44;13.20;1.40
18392;DHT22;9322;50.932;5.318;2023-04-07T14:38:10;13.40;1.40
18392;DHT22;9322;50.932;5.318;2023-04-07T14:40:36;13.20;1.40
18392;DHT22;9322;50.932;5.318;2023-04-07T14:43:02;12.80;1.40
18392;DHT22;9322;50.932;5.318;2023-04-07T14:45:28;12.50;1.40
18392;DHT22;9322;50.932;5.318;2023-04-07T14:47:54;12.10;1.40
18392;DHT22;9322;50.932;5.318;2023-04-07T14:50:20;12.20;1.40
18392;DHT22;9322;50.932;5.318;2023-04-07T14:52:46;12.10;1.40
18392;DHT22;9322;50.932;5.318;2023-04-07T14:55:11;12.00;1.40
18392;DHT22;9322;50.932;5.318;2023-04-07T14:57:37;12.10;1.40
18392;DHT22;9322;50.932;5.318;2023-04-07T15:00:04;12.30;1.40
18392;DHT22;9322;50.932;5.318;2023-04-07T15:02:34;12.40;1.40
18392;DHT22;9322;50.932;5.318;2023-04-07T15:05:00;12.80;1.40
18392;DHT22;9322;50.932;5.318;2023-04-07T15:07:25;12.80;1.40
18392;DHT22;9322;50.932;5.318;2023-04-07T15:09:51;12.60;1.40
18392;DHT22;9322;50.932;5.318;2023-04-07T15:12:17;12.60;1.40
18392;DHT22;9322;50.932;5.318;2023-04-07T15:14:45;12.80;1.40
18392;DHT22;9322;50.932;5.318;2023-04-07T15:17:11;12.70;1.40
18392;DHT22;9322;50.932;5.318;2023-04-07T15:19:37;12.60;1.40
18392;DHT22;9322;50.932;5.318;2023-04-07T15:22:03;12.50;1.40
18392;DHT22;9322;50.932;5.318;2023-04-07T15:24:28;12.60;1.40
18392;DHT22;9322;50.932;5.318;2023-04-07T15:26:54;13.00;1.40
18392;DHT22;9322;50.932;5.318;2023-04-07T15:29:20;12.70;1.40
18392;DHT22;9322;50.932;5.318;2023-04-07T15:31:45;12.50;1.40
18392;DHT22;9322;50.932;5.318;2023-04-07T15:34:11;12.70;1.40
18392;DHT22;9322;50.932;5.318;2023-04-07T15:36:38;13.00;1.40
18392;DHT22;9322;50.932;5.318;2023-04-07T15:39:04;12.80;1.40
18392;DHT22;9322;50.932;5.318;2023-04-07T15:41:31;12.60;1.40
18392;DHT22;9322;50.932;5.318;2023-04-07T15:44:00;12.40;1.40
18392;DHT22;9322;50.932;5.318;2023-04-07T15:46:26;12.50;1.40
18392;DHT22;9322;50.932;5.318;2023-04-07T15:48:52;12.60;1.40
18392;DHT22;9322;50.932;5.318;2023-04-07T15:51:17;12.80;1.40
18392;DHT22;9322;50.932;5.318;2023-04-07T15:53:43;12.80;1.40
18392;DHT22;9322;50.932;5.318;2023-04-07T15:56:09;12.70;1.40
18392;DHT22;9322;50.932;5.318;2023-04-07T15:58:35;12.70;1.40
18392;DHT22;9322;50.932;5.318;2023-04-07T16:01:02;12.40;1.40
18392;DHT22;9322;50.932;5.318;2023-04-07T16:03:28;12.30;1.40
18392;DHT22;9322;50.932;5.318;2023-04-07T16:05:53;12.20;1.40
18392;DHT22;9322;50.932;5.318;2023-04-07T16:08:19;12.20;1.40
18392;DHT22;9322;50.932;5.318;2023-04-07T16:10:45;12.10;1.40
18392;DHT22;9322;50.932;5.318;2023-04-07T16:13:10;12.10;1.40
18392;DHT22;9322;50.932;5.318;2023-04-07T16:15:36;11.90;1.40
18392;DHT22;9322;50.932;5.318;2023-04-07T16:18:07;11.60;1.40
18392;DHT22;9322;50.932;5.318;2023-04-07T16:20:33;11.50;1.40
18392;DHT22;9322;50.932;5.318;2023-04-07T16:22:58;11.60;1.40
18392;DHT22;9322;50.932;5.318;2023-04-07T16:25:24;11.60;1.40
18392;DHT22;9322;50.932;5.318;2023-04-07T16:27:53;11.50;1.40
18392;DHT22;9322;50.932;5.318;2023-04-07T16:30:19;11.50;1.40
18392;DHT22;9322;50.932;5.318;2023-04-07T16:32:45;11.30;1.40